createdAt,value
2019-03-28T00:00:47.056Z,8.90
2019-03-28T00:03:16.583Z,8.90
2019-03-28T00:05:46.116Z,8.89
2019-03-28T00:08:15.584Z,8.93
2019-03-28T00:10:45.054Z,8.93
2019-03-28T00:13:14.492Z,8.92
2019-03-28T00:15:43.960Z,8.92
2019-03-28T00:18:13.414Z,8.92
2019-03-28T00:20:42.905Z,8.89
2019-03-28T00:23:29.082Z,8.92
2019-03-28T00:25:58.619Z,8.90
2019-03-28T00:28:29.774Z,8.92
2019-03-28T00:30:59.259Z,8.89
2019-03-28T00:33:28.702Z,8.86
2019-03-28T00:35:58.165Z,8.88
2019-03-28T00:38:27.706Z,8.92
2019-03-28T00:40:57.153Z,8.92
2019-03-28T00:43:26.616Z,8.87
2019-03-28T00:45:56.272Z,8.88
2019-03-28T00:48:25.923Z,8.88
2019-03-28T00:50:55.353Z,8.85
2019-03-28T00:53:24.822Z,8.83
2019-03-28T00:55:54.299Z,8.79
2019-03-28T00:58:23.771Z,8.82
2019-03-28T01:00:53.281Z,8.80
2019-03-28T01:03:22.749Z,8.78
2019-03-28T01:05:52.761Z,8.78
2019-03-28T01:08:22.357Z,8.80
2019-03-28T01:10:51.897Z,8.80
2019-03-28T01:13:21.353Z,8.79
2019-03-28T01:15:50.819Z,8.73
2019-03-28T01:18:20.346Z,8.73
2019-03-28T01:20:49.819Z,8.78
2019-03-28T01:23:19.271Z,8.75
2019-03-28T01:25:48.814Z,8.74
2019-03-28T01:28:18.275Z,8.74
2019-03-28T01:30:47.795Z,8.74
2019-03-28T01:33:17.266Z,8.76
2019-03-28T01:35:46.709Z,8.77
2019-03-28T01:38:16.201Z,8.74
2019-03-28T01:40:45.883Z,8.74
2019-03-28T01:43:15.579Z,8.71
2019-03-28T01:45:45.042Z,8.68
2019-03-28T01:48:14.546Z,8.65
2019-03-28T01:50:44.068Z,8.69
2019-03-28T01:53:13.548Z,8.68
2019-03-28T01:55:43.951Z,8.67
2019-03-28T01:58:13.414Z,8.69
2019-03-28T02:00:42.954Z,8.65
2019-03-28T02:03:12.405Z,8.67
2019-03-28T02:05:43.386Z,8.68
2019-03-28T02:08:12.840Z,8.67
2019-03-28T02:10:42.320Z,8.69
2019-03-28T02:13:11.771Z,8.69
2019-03-28T02:15:41.250Z,8.59
2019-03-28T02:18:10.768Z,8.61
2019-03-28T02:20:40.353Z,8.59
2019-03-28T02:23:10.373Z,8.54
2019-03-28T02:25:39.954Z,8.52
2019-03-28T02:28:09.573Z,8.47
2019-03-28T02:30:39.089Z,8.42
2019-03-28T02:33:08.565Z,8.39
2019-03-28T02:35:38.006Z,8.38
2019-03-28T02:38:08.554Z,8.44
2019-03-28T02:40:38.000Z,8.40
2019-03-28T02:43:07.472Z,8.39
2019-03-28T02:45:36.994Z,8.36
2019-03-28T02:48:06.615Z,8.36
2019-03-28T02:50:36.077Z,8.36
2019-03-28T02:53:05.617Z,8.34
2019-03-28T02:55:35.104Z,8.32
2019-03-28T02:58:04.614Z,8.27
2019-03-28T03:00:34.091Z,8.29
2019-03-28T03:03:03.610Z,8.28
2019-03-28T03:05:33.088Z,8.28
2019-03-28T03:08:02.617Z,8.27
2019-03-28T03:10:32.223Z,8.27
2019-03-28T03:13:01.812Z,8.25
2019-03-28T03:15:31.280Z,8.23
2019-03-28T03:18:00.725Z,8.18
2019-03-28T03:20:30.214Z,8.18
2019-03-28T03:22:59.747Z,8.16
2019-03-28T03:25:29.222Z,8.13
2019-03-28T03:27:59.432Z,8.16
2019-03-28T03:30:31.371Z,8.16
2019-03-28T03:33:00.230Z,8.17
2019-03-28T03:35:29.751Z,8.13
2019-03-28T03:37:59.195Z,8.12
2019-03-28T03:40:28.660Z,8.15
2019-03-28T03:42:58.262Z,8.13
2019-03-28T03:45:27.778Z,8.07
2019-03-28T03:47:57.236Z,8.05
2019-03-28T03:50:28.541Z,8.04
2019-03-28T03:52:58.359Z,8.02
2019-03-28T03:55:27.899Z,8.01
2019-03-28T03:58:13.856Z,8.03
2019-03-28T04:00:38.013Z,8.03
2019-03-28T04:03:07.562Z,8.05
2019-03-28T04:05:37.109Z,8.03
2019-03-28T04:08:06.633Z,8.05
2019-03-28T04:10:36.099Z,8.08
2019-03-28T04:13:05.582Z,8.05
2019-03-28T04:15:35.025Z,8.06
2019-03-28T04:18:04.561Z,8.07
2019-03-28T04:20:34.082Z,8.02
2019-03-28T04:23:04.008Z,8.07
2019-03-28T04:25:33.754Z,8.08
2019-03-28T04:28:03.296Z,8.12
2019-03-28T04:30:32.762Z,8.09
2019-03-28T04:33:03.288Z,8.05
2019-03-28T04:35:32.766Z,8.04
2019-03-28T04:38:02.218Z,8.07
2019-03-28T04:40:31.761Z,8.07
2019-03-28T04:43:01.345Z,8.05
2019-03-28T04:45:30.819Z,8.07
2019-03-28T04:48:00.262Z,8.07
2019-03-28T04:50:29.753Z,8.09
2019-03-28T04:52:59.186Z,8.08
2019-03-28T04:55:28.654Z,8.06
2019-03-28T04:57:58.122Z,8.08
2019-03-28T05:00:27.646Z,8.04
2019-03-28T05:02:57.636Z,8.04
2019-03-28T05:05:27.432Z,8.01
2019-03-28T05:07:57.875Z,8.08
2019-03-28T05:10:27.340Z,8.08
2019-03-28T05:12:56.817Z,8.08
2019-03-28T05:15:26.293Z,8.00
2019-03-28T05:17:55.768Z,8.04
2019-03-28T05:20:27.349Z,7.98
2019-03-28T05:22:56.817Z,7.98
2019-03-28T05:25:26.286Z,8.04
2019-03-28T05:27:55.810Z,8.02
2019-03-28T05:30:25.273Z,8.05
2019-03-28T05:32:54.733Z,8.08
2019-03-28T05:35:24.210Z,8.06
2019-03-28T05:37:53.637Z,8.09
2019-03-28T05:40:23.104Z,8.08
2019-03-28T05:42:52.568Z,8.19
2019-03-28T05:45:22.031Z,8.22
2019-03-28T05:47:51.499Z,8.21
2019-03-28T05:50:21.049Z,8.19
2019-03-28T05:52:50.504Z,8.19
2019-03-28T05:55:19.979Z,8.23
2019-03-28T05:57:49.493Z,8.28
2019-03-28T06:00:18.959Z,8.25
2019-03-28T06:02:50.518Z,8.31
2019-03-28T06:05:20.162Z,8.32
2019-03-28T06:07:49.618Z,8.32
2019-03-28T06:10:19.065Z,8.29
2019-03-28T06:12:48.534Z,8.32
2019-03-28T06:15:18.120Z,8.30
2019-03-28T06:17:47.569Z,8.33
2019-03-28T06:20:18.082Z,8.33
2019-03-28T06:22:47.602Z,8.40
2019-03-28T06:25:17.643Z,8.39
2019-03-28T06:27:47.089Z,8.46
2019-03-28T06:30:16.908Z,8.46
2019-03-28T06:32:46.367Z,8.47
2019-03-28T06:35:15.910Z,8.51
2019-03-28T06:37:45.452Z,8.57
2019-03-28T06:40:15.036Z,8.55
2019-03-28T06:42:44.506Z,8.66
2019-03-28T06:45:14.124Z,8.73
2019-03-28T06:47:43.570Z,8.80
2019-03-28T06:50:13.272Z,8.79
2019-03-28T06:52:42.740Z,8.86
2019-03-28T06:55:12.538Z,8.86
2019-03-28T06:57:42.025Z,8.89
2019-03-28T07:00:12.297Z,8.90
2019-03-28T07:02:41.776Z,8.93
2019-03-28T07:05:11.561Z,8.96
2019-03-28T07:07:41.056Z,9.04
2019-03-28T07:10:11.037Z,9.08
2019-03-28T07:12:41.562Z,9.04
2019-03-28T07:15:11.150Z,9.05
2019-03-28T07:17:40.762Z,9.14
2019-03-28T07:20:10.816Z,9.24
2019-03-28T07:22:40.291Z,9.35
2019-03-28T07:25:09.912Z,9.50
2019-03-28T07:27:39.372Z,9.60
2019-03-28T07:30:11.907Z,9.79
2019-03-28T07:32:43.453Z,9.88
2019-03-28T07:35:13.031Z,9.93
2019-03-28T07:37:42.505Z,9.96
2019-03-28T07:40:12.504Z,9.91
2019-03-28T07:42:41.970Z,9.77
2019-03-28T07:45:11.756Z,9.69
2019-03-28T07:47:41.220Z,9.69
2019-03-28T07:50:11.677Z,9.75
2019-03-28T07:52:42.418Z,9.83
2019-03-28T07:55:12.303Z,9.86
2019-03-28T07:57:42.045Z,9.86
2019-03-28T08:00:12.706Z,9.93
2019-03-28T08:02:42.310Z,9.95
2019-03-28T08:05:13.280Z,10.00
2019-03-28T08:07:45.403Z,10.12
2019-03-28T08:10:15.501Z,10.27
2019-03-28T08:12:45.131Z,10.33
2019-03-28T08:15:15.121Z,10.48
2019-03-28T08:17:44.837Z,10.61
2019-03-28T08:20:14.750Z,10.57
2019-03-28T08:22:44.199Z,10.66
2019-03-28T08:25:14.507Z,10.62
2019-03-28T08:27:44.109Z,10.68
2019-03-28T08:30:18.871Z,10.80
2019-03-28T08:32:45.586Z,10.91
2019-03-28T08:35:15.205Z,10.96
2019-03-28T08:37:44.894Z,10.96
2019-03-28T08:40:17.426Z,10.97
2019-03-28T08:42:47.483Z,10.88
2019-03-28T08:45:18.403Z,10.88
2019-03-28T08:47:48.026Z,10.96
2019-03-28T08:50:17.617Z,11.01
2019-03-28T08:52:47.047Z,11.11
2019-03-28T08:55:16.523Z,11.12
2019-03-28T08:57:46.066Z,11.16
2019-03-28T09:00:16.823Z,11.53
2019-03-28T09:02:46.728Z,11.53
2019-03-28T09:05:16.269Z,11.85
2019-03-28T09:07:45.894Z,12.16
2019-03-28T09:10:15.492Z,11.96
2019-03-28T09:12:44.966Z,11.83
2019-03-28T09:15:14.926Z,11.94
2019-03-28T09:17:44.525Z,11.84
2019-03-28T09:20:14.130Z,12.03
2019-03-28T09:22:43.570Z,12.09
2019-03-28T09:25:13.386Z,11.97
2019-03-28T09:27:42.832Z,11.79
2019-03-28T09:30:13.046Z,11.94
2019-03-28T09:32:42.540Z,11.94
2019-03-28T09:35:15.062Z,12.04
2019-03-28T09:37:44.524Z,12.17
2019-03-28T09:40:14.066Z,12.09
2019-03-28T09:42:43.577Z,12.15
2019-03-28T09:45:13.190Z,12.15
2019-03-28T09:47:42.718Z,11.96
2019-03-28T09:50:12.366Z,12.09
2019-03-28T09:52:42.013Z,12.04
2019-03-28T09:55:11.629Z,12.11
2019-03-28T09:57:41.078Z,12.21
2019-03-28T10:00:13.172Z,12.30
2019-03-28T10:02:44.276Z,12.04
2019-03-28T10:05:13.946Z,11.98
2019-03-28T10:07:43.421Z,12.17
2019-03-28T10:10:13.204Z,12.53
2019-03-28T10:12:44.313Z,12.77
2019-03-28T10:15:15.133Z,12.81
2019-03-28T10:17:44.677Z,12.77
2019-03-28T10:20:14.357Z,12.72
2019-03-28T10:22:43.818Z,12.57
2019-03-28T10:25:14.590Z,12.43
2019-03-28T10:27:44.199Z,12.63
2019-03-28T10:30:14.109Z,12.93
2019-03-28T10:32:43.574Z,13.06
2019-03-28T10:35:16.067Z,13.05
2019-03-28T10:37:45.531Z,12.84
2019-03-28T10:40:15.040Z,12.80
2019-03-28T10:42:44.517Z,12.77
2019-03-28T10:45:14.099Z,12.59
2019-03-28T10:47:43.639Z,12.43
2019-03-28T10:50:13.175Z,12.49
2019-03-28T10:52:42.690Z,12.70
2019-03-28T10:55:12.293Z,13.07
2019-03-28T10:57:41.802Z,13.08
2019-03-28T11:00:23.578Z,12.78
2019-03-28T11:02:43.286Z,12.46
2019-03-28T11:05:12.999Z,12.46
2019-03-28T11:07:42.627Z,12.48
2019-03-28T11:10:12.249Z,12.65
2019-03-28T11:12:41.830Z,13.05
2019-03-28T11:15:11.454Z,13.40
2019-03-28T11:17:40.890Z,13.78
2019-03-28T11:20:10.708Z,14.09
2019-03-28T11:22:40.306Z,13.87
2019-03-28T11:25:09.910Z,13.99
2019-03-28T11:27:39.451Z,14.07
2019-03-28T11:30:10.867Z,13.80
2019-03-28T11:32:40.425Z,13.63
2019-03-28T11:35:10.133Z,13.48
2019-03-28T11:37:39.712Z,13.33
2019-03-28T11:40:10.475Z,13.47
2019-03-28T11:42:41.087Z,13.68
2019-03-28T11:45:11.222Z,13.89
2019-03-28T11:47:40.699Z,13.90
2019-03-28T11:50:11.228Z,13.93
2019-03-28T11:52:42.683Z,13.82
2019-03-28T11:55:12.277Z,13.54
2019-03-28T11:57:41.746Z,13.51
2019-03-28T12:00:14.906Z,13.48
2019-03-28T12:02:44.455Z,13.32
2019-03-28T12:05:14.318Z,13.32
2019-03-28T12:07:43.795Z,13.16
2019-03-28T12:10:13.991Z,13.11
2019-03-28T12:12:44.111Z,13.09
2019-03-28T12:15:15.649Z,13.18
2019-03-28T12:17:45.267Z,13.07
2019-03-28T12:20:15.621Z,13.06
2019-03-28T12:22:45.515Z,13.07
2019-03-28T12:25:15.101Z,12.93
2019-03-28T12:27:44.554Z,12.76
2019-03-28T12:30:16.113Z,12.86
2019-03-28T12:32:45.877Z,12.81
2019-03-28T12:35:15.952Z,12.90
2019-03-28T12:37:46.965Z,12.96
2019-03-28T12:40:17.811Z,13.00
2019-03-28T12:42:47.281Z,13.00
2019-03-28T12:45:17.163Z,13.06
2019-03-28T12:47:46.719Z,12.97
2019-03-28T12:50:16.499Z,12.77
2019-03-28T12:52:46.375Z,12.74
2019-03-28T12:55:17.511Z,12.75
2019-03-28T12:57:48.532Z,12.79
2019-03-28T13:00:21.314Z,12.78
2019-03-28T13:02:50.946Z,12.78
2019-03-28T13:05:20.840Z,12.74
2019-03-28T13:07:50.353Z,12.98
2019-03-28T13:10:20.477Z,12.98
2019-03-28T13:12:50.987Z,12.99
2019-03-28T13:15:21.706Z,13.19
2019-03-28T13:17:51.222Z,13.22
2019-03-28T13:20:22.435Z,13.23
2019-03-28T13:22:56.649Z,13.04
2019-03-28T13:25:26.363Z,13.01
2019-03-28T13:27:55.797Z,13.08
2019-03-28T13:30:25.407Z,13.05
2019-03-28T13:32:55.617Z,12.98
2019-03-28T13:35:26.783Z,13.05
2019-03-28T13:37:56.813Z,13.12
2019-03-28T13:40:27.964Z,13.39
2019-03-28T13:42:57.853Z,13.66
2019-03-28T13:45:30.401Z,13.77
2019-03-28T13:48:00.265Z,13.77
2019-03-28T13:50:29.689Z,13.81
2019-03-28T13:52:59.137Z,13.97
2019-03-28T13:55:28.799Z,14.01
2019-03-28T13:58:00.702Z,14.14
2019-03-28T14:00:32.038Z,14.04
2019-03-28T14:03:01.789Z,14.10
2019-03-28T14:05:31.456Z,13.94
2019-03-28T14:08:05.163Z,13.87
2019-03-28T14:10:34.677Z,13.86
2019-03-28T14:13:04.351Z,13.98
2019-03-28T14:15:33.994Z,13.98
2019-03-28T14:18:04.599Z,14.10
2019-03-28T14:20:35.666Z,14.20
2019-03-28T14:23:05.236Z,14.13
2019-03-28T14:25:34.887Z,14.02
2019-03-28T14:28:04.729Z,14.01
2019-03-28T14:30:34.677Z,13.92
2019-03-28T14:33:11.156Z,14.04
2019-03-28T14:35:35.501Z,13.98
2019-03-28T14:38:07.247Z,13.99
2019-03-28T14:40:36.757Z,13.92
2019-03-28T14:43:07.856Z,13.87
2019-03-28T14:45:41.254Z,13.80
2019-03-28T14:48:10.692Z,13.71
2019-03-28T14:50:42.535Z,13.42
2019-03-28T14:53:12.013Z,13.54
2019-03-28T14:55:41.703Z,13.54
2019-03-28T14:58:11.109Z,13.45
2019-03-28T15:00:49.389Z,13.36
2019-03-28T15:03:26.091Z,13.54
2019-03-28T15:05:50.845Z,13.66
2019-03-28T15:08:21.205Z,13.59
2019-03-28T15:10:50.958Z,13.63
2019-03-28T15:13:20.670Z,13.52
2019-03-28T15:15:50.657Z,13.50
2019-03-28T15:18:20.824Z,13.49
2019-03-28T15:20:51.204Z,13.55
2019-03-28T15:23:21.352Z,13.46
2019-03-28T15:25:51.776Z,13.47
2019-03-28T15:28:21.268Z,13.49
2019-03-28T15:30:50.876Z,13.39
2019-03-28T15:33:20.574Z,13.38
2019-03-28T15:35:50.329Z,13.23
2019-03-28T15:38:19.866Z,12.93
2019-03-28T15:40:55.348Z,13.11
2019-03-28T15:43:24.940Z,12.97
2019-03-28T15:45:54.392Z,12.99
2019-03-28T15:48:23.972Z,12.85
2019-03-28T15:50:53.816Z,12.84
2019-03-28T15:53:23.780Z,12.85
2019-03-28T15:55:53.414Z,12.90
2019-03-28T15:58:25.514Z,13.01
2019-03-28T16:00:55.248Z,12.85
2019-03-28T16:03:25.089Z,12.76
2019-03-28T16:05:58.531Z,12.70
2019-03-28T16:08:27.885Z,12.69
2019-03-28T16:10:57.601Z,12.69
2019-03-28T16:13:27.034Z,12.71
2019-03-28T16:15:56.555Z,12.68
2019-03-28T16:18:26.143Z,12.65
2019-03-28T16:20:55.554Z,12.71
2019-03-28T16:23:26.958Z,12.65
2019-03-28T16:25:56.377Z,12.63
2019-03-28T16:28:28.206Z,12.72
2019-03-28T16:30:57.901Z,12.65
2019-03-28T16:33:27.318Z,12.65
2019-03-28T16:35:56.901Z,12.48
2019-03-28T16:38:26.713Z,12.60
2019-03-28T16:40:56.241Z,12.65
2019-03-28T16:43:26.048Z,12.54
2019-03-28T16:45:55.639Z,12.44
2019-03-28T16:48:25.471Z,12.49
2019-03-28T16:50:55.475Z,12.53
2019-03-28T16:53:24.919Z,12.56
2019-03-28T16:55:55.938Z,12.49
2019-03-28T16:58:25.480Z,12.42
2019-03-28T17:00:54.976Z,12.38
2019-03-28T17:03:24.506Z,12.30
2019-03-28T17:05:53.952Z,12.22
2019-03-28T17:08:24.754Z,12.14
2019-03-28T17:10:55.042Z,12.15
2019-03-28T17:13:24.448Z,12.12
2019-03-28T17:15:54.107Z,12.02
2019-03-28T17:18:25.630Z,12.06
2019-03-28T17:20:55.895Z,12.05
2019-03-28T17:23:25.549Z,12.04
2019-03-28T17:25:55.145Z,12.07
2019-03-28T17:28:28.980Z,12.02
2019-03-28T17:30:58.628Z,12.03
2019-03-28T17:33:28.615Z,12.01
2019-03-28T17:35:59.670Z,11.98
2019-03-28T17:38:29.157Z,11.93
2019-03-28T17:40:59.308Z,11.95
2019-03-28T17:43:28.734Z,11.90
2019-03-28T17:45:58.494Z,11.88
2019-03-28T17:48:28.647Z,11.88
2019-03-28T17:51:00.422Z,11.87
2019-03-28T17:53:30.002Z,11.86
2019-03-28T17:55:59.514Z,11.84
2019-03-28T17:58:29.166Z,11.83
2019-03-28T18:00:58.583Z,11.81
2019-03-28T18:03:31.496Z,11.85
2019-03-28T18:05:59.758Z,11.80
2019-03-28T18:08:31.559Z,11.77
2019-03-28T18:11:01.122Z,11.73
2019-03-28T18:13:32.236Z,11.71
2019-03-28T18:16:04.787Z,11.70
2019-03-28T18:18:36.405Z,11.65
2019-03-28T18:21:09.571Z,11.63
2019-03-28T18:23:40.591Z,11.63
2019-03-28T18:26:10.178Z,11.59
2019-03-28T18:28:39.643Z,11.54
2019-03-28T18:31:11.683Z,11.49
2019-03-28T18:33:41.287Z,11.49
2019-03-28T18:36:10.843Z,11.44
2019-03-28T18:38:44.593Z,11.39
2019-03-28T18:41:14.048Z,11.37
2019-03-28T18:43:43.548Z,11.34
2019-03-28T18:46:14.930Z,11.31
2019-03-28T18:48:44.650Z,11.35
2019-03-28T18:51:14.396Z,11.33
2019-03-28T18:53:43.847Z,11.31
2019-03-28T18:56:13.351Z,11.29
2019-03-28T18:58:42.785Z,11.25
2019-03-28T19:01:12.376Z,11.21
2019-03-28T19:03:41.934Z,11.20
2019-03-28T19:06:14.674Z,11.14
2019-03-28T19:08:42.609Z,11.16
2019-03-28T19:11:13.045Z,11.14
2019-03-28T19:13:45.742Z,11.14
2019-03-28T19:16:16.168Z,11.10
2019-03-28T19:18:45.664Z,11.07
2019-03-28T19:21:15.557Z,11.06
2019-03-28T19:23:44.967Z,11.06
2019-03-28T19:26:14.469Z,11.04
2019-03-28T19:28:43.980Z,11.00
2019-03-28T19:31:14.119Z,10.97
2019-03-28T19:33:43.566Z,10.96
2019-03-28T19:36:14.026Z,10.96
2019-03-28T19:38:43.616Z,10.94
2019-03-28T19:41:13.249Z,10.94
2019-03-28T19:43:43.807Z,10.86
2019-03-28T19:46:13.471Z,10.78
2019-03-28T19:48:43.111Z,10.74
2019-03-28T19:51:12.621Z,10.74
2019-03-28T19:53:42.110Z,10.74
2019-03-28T19:56:11.628Z,10.72
2019-03-28T19:58:41.224Z,10.71
2019-03-28T20:01:10.686Z,10.71
2019-03-28T20:03:40.212Z,10.73
2019-03-28T20:06:21.524Z,10.73
2019-03-28T20:08:40.958Z,10.76
2019-03-28T20:11:11.194Z,10.78
2019-03-28T20:13:40.653Z,10.80
2019-03-28T20:16:10.098Z,10.82
2019-03-28T20:18:42.952Z,10.80
2019-03-28T20:21:12.990Z,10.81
2019-03-28T20:23:43.095Z,10.80
2019-03-28T20:26:12.558Z,10.81
2019-03-28T20:28:42.898Z,10.78
2019-03-28T20:31:13.132Z,10.76
2019-03-28T20:33:42.716Z,10.74
2019-03-28T20:36:36.346Z,10.74
2019-03-28T20:38:44.810Z,10.74
2019-03-28T20:41:14.458Z,10.70
2019-03-28T20:43:43.922Z,10.69
2019-03-28T20:46:13.414Z,10.68
2019-03-28T20:48:43.467Z,10.65
2019-03-28T20:51:13.379Z,10.59
2019-03-28T20:53:43.858Z,10.59
2019-03-28T20:56:13.402Z,10.58
2019-03-28T20:58:42.901Z,10.58
2019-03-28T21:01:12.435Z,10.60
2019-03-28T21:03:42.071Z,10.56
2019-03-28T21:06:15.393Z,10.54
2019-03-28T21:08:42.970Z,10.54
2019-03-28T21:11:12.402Z,10.51
2019-03-28T21:13:41.929Z,10.53
2019-03-28T21:16:11.898Z,10.53
2019-03-28T21:18:41.540Z,10.54
2019-03-28T21:21:11.103Z,10.56
2019-03-28T21:23:40.549Z,10.54
2019-03-28T21:26:13.030Z,10.51
2019-03-28T21:28:47.527Z,10.49
2019-03-28T21:31:15.905Z,10.49
2019-03-28T21:33:45.613Z,10.48
2019-03-28T21:36:28.599Z,10.48
2019-03-28T21:38:46.706Z,10.47
2019-03-28T21:41:16.207Z,10.45
2019-03-28T21:43:45.733Z,10.44
2019-03-28T21:46:15.475Z,10.43
2019-03-28T21:48:44.905Z,10.43
2019-03-28T21:51:14.443Z,10.41
2019-03-28T21:53:44.038Z,10.46
2019-03-28T21:56:14.391Z,10.45
2019-03-28T21:58:44.087Z,10.48
2019-03-28T22:01:13.528Z,10.50
2019-03-28T22:03:43.184Z,10.51
2019-03-28T22:06:12.958Z,10.51
2019-03-28T22:08:42.526Z,10.52
2019-03-28T22:11:12.138Z,10.50
2019-03-28T22:13:43.612Z,10.47
2019-03-28T22:16:12.796Z,10.42
2019-03-28T22:18:42.257Z,10.42
2019-03-28T22:21:11.716Z,10.40
2019-03-28T22:23:41.178Z,10.41
2019-03-28T22:26:10.609Z,10.41
2019-03-28T22:28:40.159Z,10.42
2019-03-28T22:31:09.898Z,10.42
2019-03-28T22:33:41.880Z,10.44
2019-03-28T22:36:11.618Z,10.49
2019-03-28T22:38:41.060Z,10.49
2019-03-28T22:41:10.513Z,10.48
2019-03-28T22:43:40.950Z,10.48
2019-03-28T22:46:10.406Z,10.46
2019-03-28T22:48:40.060Z,10.40
2019-03-28T22:51:09.665Z,10.40
2019-03-28T22:53:39.097Z,10.40
2019-03-28T22:56:08.634Z,10.42
2019-03-28T22:58:38.050Z,10.40
2019-03-28T23:01:07.667Z,10.38
2019-03-28T23:03:37.644Z,10.37
2019-03-28T23:06:07.169Z,10.36
2019-03-28T23:08:36.631Z,10.35
2019-03-28T23:11:06.128Z,10.33
2019-03-28T23:13:36.621Z,10.31
2019-03-28T23:16:06.123Z,10.31
2019-03-28T23:18:35.651Z,10.33
2019-03-28T23:21:05.145Z,10.31
2019-03-28T23:23:37.595Z,10.29
2019-03-28T23:26:07.171Z,10.27
2019-03-28T23:28:37.711Z,10.27
2019-03-28T23:31:07.239Z,10.26
2019-03-28T23:33:38.357Z,10.25
2019-03-28T23:36:07.898Z,10.25
2019-03-28T23:38:37.357Z,10.22
2019-03-28T23:41:06.855Z,10.23
2019-03-28T23:43:36.372Z,10.23
2019-03-28T23:46:05.793Z,10.28
2019-03-28T23:48:35.235Z,10.27
2019-03-28T23:51:04.830Z,10.28
2019-03-28T23:53:34.911Z,10.23
2019-03-28T23:56:04.510Z,10.23
2019-03-28T23:58:34.137Z,10.24
